createdAt,value
2023-05-04T00:02:08.080Z,9.55
2023-05-04T00:04:35.315Z,9.88
2023-05-04T00:07:02.847Z,9.60
2023-05-04T00:09:30.595Z,9.48
2023-05-04T00:11:58.903Z,8.82
2023-05-04T00:14:26.126Z,9.52
2023-05-04T00:16:53.611Z,9.73
2023-05-04T00:19:20.840Z,9.45
2023-05-04T00:21:48.314Z,10.35
2023-05-04T00:24:15.761Z,9.07
2023-05-04T00:26:43.318Z,9.57
2023-05-04T00:29:10.546Z,8.32
2023-05-04T00:31:38.084Z,9.60
2023-05-04T00:34:05.395Z,9.57
2023-05-04T00:36:32.920Z,9.65
2023-05-04T00:39:00.143Z,9.20
2023-05-04T00:41:27.639Z,9.45
2023-05-04T00:43:54.817Z,10.13
2023-05-04T00:46:22.484Z,10.45
2023-05-04T00:48:49.688Z,9.57
2023-05-04T00:51:18.317Z,10.25
2023-05-04T00:53:45.515Z,8.70
2023-05-04T00:56:13.647Z,9.32
2023-05-04T00:58:40.880Z,9.27
2023-05-04T01:01:08.485Z,10.52
2023-05-04T01:03:35.801Z,9.70
2023-05-04T01:06:21.866Z,9.27
2023-05-04T01:09:12.213Z,9.48
2023-05-04T01:11:49.659Z,9.20
2023-05-04T01:14:19.904Z,9.07
2023-05-04T01:16:47.990Z,9.20
2023-05-04T01:19:15.175Z,9.77
2023-05-04T01:21:42.701Z,9.18
2023-05-04T01:24:10.038Z,9.55
2023-05-04T01:26:42.093Z,9.38
2023-05-04T01:29:12.119Z,9.90
2023-05-04T01:31:39.593Z,10.30
2023-05-04T01:34:08.364Z,10.20
2023-05-04T01:36:36.155Z,9.80
2023-05-04T01:39:03.534Z,11.02
2023-05-04T01:41:31.037Z,10.38
2023-05-04T01:43:58.333Z,10.65
2023-05-04T01:46:26.111Z,11.85
2023-05-04T01:48:53.445Z,11.02
2023-05-04T01:51:20.884Z,10.93
2023-05-04T01:53:48.209Z,10.70
2023-05-04T01:56:15.756Z,10.93
2023-05-04T01:58:43.012Z,10.48
2023-05-04T02:01:10.570Z,11.38
2023-05-04T02:03:37.897Z,10.55
2023-05-04T02:06:05.449Z,10.35
2023-05-04T02:08:32.688Z,10.80
2023-05-04T02:11:00.212Z,10.85
2023-05-04T02:13:27.443Z,11.13
2023-05-04T02:15:55.148Z,9.95
2023-05-04T02:18:22.418Z,9.98
2023-05-04T02:20:49.960Z,10.45
2023-05-04T02:23:17.217Z,9.73
2023-05-04T02:25:44.726Z,11.02
2023-05-04T02:28:11.981Z,9.73
2023-05-04T02:30:41.036Z,10.95
2023-05-04T02:33:08.541Z,10.30
2023-05-04T02:35:36.235Z,9.77
2023-05-04T02:38:03.419Z,10.15
2023-05-04T02:40:30.960Z,10.70
2023-05-04T02:42:58.184Z,10.13
2023-05-04T02:45:28.324Z,9.38
2023-05-04T02:47:55.642Z,10.10
2023-05-04T02:50:23.118Z,10.02
2023-05-04T02:52:50.291Z,10.93
2023-05-04T02:55:17.760Z,11.25
2023-05-04T02:57:44.979Z,10.52
2023-05-04T03:02:58.477Z,10.70
2023-05-04T03:05:26.219Z,10.43
2023-05-04T03:07:53.454Z,11.27
2023-05-04T03:10:21.009Z,10.50
2023-05-04T03:12:48.265Z,10.93
2023-05-04T03:15:15.938Z,10.63
2023-05-04T03:17:43.396Z,10.45
2023-05-04T03:20:12.401Z,9.77
2023-05-04T03:22:39.615Z,11.20
2023-05-04T03:25:07.413Z,11.07
2023-05-04T03:27:34.627Z,11.40
2023-05-04T03:30:02.185Z,11.32
2023-05-04T03:32:29.620Z,11.15
2023-05-04T03:34:57.191Z,10.75
2023-05-04T03:37:24.569Z,11.35
2023-05-04T03:39:52.094Z,10.18
2023-05-04T03:42:19.355Z,10.95
2023-05-04T03:44:46.877Z,11.68
2023-05-04T03:47:14.102Z,10.93
2023-05-04T03:49:41.659Z,11.23
2023-05-04T03:52:08.894Z,11.57
2023-05-04T03:54:36.422Z,11.10
2023-05-04T03:57:03.657Z,11.10
2023-05-04T03:59:31.354Z,10.93
2023-05-04T04:02:00.039Z,11.15
2023-05-04T04:04:27.707Z,11.50
2023-05-04T04:06:54.968Z,10.45
2023-05-04T04:09:22.518Z,10.23
2023-05-04T04:11:49.807Z,9.75
2023-05-04T04:14:17.422Z,10.27
2023-05-04T04:16:44.852Z,9.60
2023-05-04T04:19:12.554Z,9.48
2023-05-04T04:21:39.917Z,9.30
2023-05-04T04:24:07.518Z,8.70
2023-05-04T04:26:34.783Z,9.35
2023-05-04T04:29:02.396Z,7.72
2023-05-04T04:31:29.674Z,8.80
2023-05-04T04:33:57.233Z,9.15
2023-05-04T04:36:24.519Z,9.75
2023-05-04T04:38:52.072Z,8.95
2023-05-04T04:41:19.317Z,9.75
2023-05-04T04:43:46.919Z,9.05
2023-05-04T04:46:14.208Z,9.18
2023-05-04T04:48:41.818Z,8.23
2023-05-04T04:51:12.162Z,7.80
2023-05-04T04:53:41.843Z,7.90
2023-05-04T04:56:09.025Z,8.55
2023-05-04T04:58:36.622Z,8.00
2023-05-04T05:01:04.515Z,7.88
2023-05-04T05:03:32.180Z,7.80
2023-05-04T05:05:59.525Z,8.02
2023-05-04T05:08:27.151Z,8.07
2023-05-04T05:10:54.375Z,7.22
2023-05-04T05:13:21.999Z,6.45
2023-05-04T05:15:49.327Z,6.88
2023-05-04T05:18:16.947Z,7.03
2023-05-04T05:20:44.241Z,7.10
2023-05-04T05:23:11.769Z,6.57
2023-05-04T05:25:39.334Z,6.30
2023-05-04T05:28:09.154Z,6.78
2023-05-04T05:30:36.542Z,6.45
2023-05-04T05:33:05.393Z,6.80
2023-05-04T05:35:32.705Z,6.60
2023-05-04T05:38:08.308Z,6.78
2023-05-04T05:40:36.517Z,5.93
2023-05-04T05:43:04.012Z,6.38
2023-05-04T05:45:31.249Z,5.88
2023-05-04T05:47:58.846Z,6.38
2023-05-04T05:50:26.238Z,6.22
2023-05-04T05:52:53.778Z,6.68
2023-05-04T05:55:21.023Z,6.57
2023-05-04T05:57:48.550Z,6.30
2023-05-04T06:00:16.236Z,6.38
2023-05-04T06:02:54.896Z,6.22
2023-05-04T06:05:22.190Z,6.07
2023-05-04T06:07:49.764Z,5.63
2023-05-04T06:10:17.060Z,6.65
2023-05-04T06:12:44.608Z,6.28
2023-05-04T06:15:11.880Z,5.45
2023-05-04T06:17:39.418Z,5.40
2023-05-04T06:20:07.414Z,5.43
2023-05-04T06:22:35.171Z,5.05
2023-05-04T06:25:06.117Z,5.22
2023-05-04T06:27:35.671Z,4.93
2023-05-04T06:30:03.463Z,5.18
2023-05-04T06:32:31.557Z,5.65
2023-05-04T06:34:58.813Z,5.80
2023-05-04T06:37:26.496Z,5.68
2023-05-04T06:39:54.237Z,4.93
2023-05-04T06:42:21.796Z,5.50
2023-05-04T06:44:49.059Z,5.50
2023-05-04T06:47:16.601Z,5.10
2023-05-04T06:49:43.855Z,5.45
2023-05-04T06:52:11.408Z,5.20
2023-05-04T06:54:38.633Z,4.90
2023-05-04T06:57:06.180Z,4.70
2023-05-04T06:59:33.480Z,5.60
2023-05-04T07:02:00.984Z,4.80
2023-05-04T07:04:28.218Z,4.88
2023-05-04T07:06:55.781Z,4.63
2023-05-04T07:09:23.022Z,4.43
2023-05-04T07:11:50.534Z,5.05
2023-05-04T07:14:17.893Z,4.72
2023-05-04T07:16:45.568Z,4.75
2023-05-04T07:19:12.924Z,4.65
2023-05-04T07:21:40.513Z,4.50
2023-05-04T07:24:07.780Z,4.20
2023-05-04T07:26:35.295Z,4.72
2023-05-04T07:29:02.537Z,4.22
2023-05-04T07:31:30.723Z,4.40
2023-05-04T07:33:58.199Z,3.90
2023-05-04T07:36:25.900Z,3.60
2023-05-04T07:38:56.045Z,3.60
2023-05-04T07:41:23.606Z,3.50
2023-05-04T07:43:51.034Z,3.33
2023-05-04T07:46:19.387Z,3.30
2023-05-04T07:48:46.637Z,3.10
2023-05-04T07:51:14.435Z,2.80
2023-05-04T07:53:42.161Z,3.42
2023-05-04T07:56:10.640Z,3.17
2023-05-04T07:58:37.849Z,3.20
2023-05-04T08:01:05.540Z,3.45
2023-05-04T08:03:32.789Z,2.95
2023-05-04T08:06:00.303Z,2.47
2023-05-04T08:08:27.556Z,2.72
2023-05-04T08:10:59.838Z,3.05
2023-05-04T08:13:32.286Z,2.53
2023-05-04T08:15:59.809Z,2.50
2023-05-04T08:18:27.019Z,2.42
2023-05-04T08:20:54.662Z,2.75
2023-05-04T08:23:21.916Z,2.40
2023-05-04T08:25:49.393Z,2.22
2023-05-04T08:28:16.708Z,2.45
2023-05-04T08:30:44.259Z,2.58
2023-05-04T08:33:11.512Z,2.47
2023-05-04T08:35:39.059Z,2.40
2023-05-04T08:38:07.253Z,2.65
2023-05-04T08:40:34.753Z,2.80
2023-05-04T08:43:03.264Z,2.10
2023-05-04T08:45:31.014Z,2.20
2023-05-04T08:47:58.437Z,2.60
2023-05-04T08:50:26.064Z,2.50
2023-05-04T08:52:53.331Z,2.35
2023-05-04T08:55:21.249Z,2.50
2023-05-04T08:57:51.076Z,2.85
2023-05-04T09:00:19.485Z,2.53
2023-05-04T09:02:47.069Z,2.70
2023-05-04T09:05:14.740Z,2.80
2023-05-04T09:07:42.003Z,2.60
2023-05-04T09:10:09.912Z,2.40
2023-05-04T09:12:37.526Z,3.03
2023-05-04T09:15:18.170Z,2.30
2023-05-04T09:18:18.286Z,2.40
2023-05-04T09:20:47.065Z,2.92
2023-05-04T09:23:15.362Z,1.95
2023-05-04T09:25:50.268Z,2.35
2023-05-04T09:28:20.609Z,2.40
2023-05-04T09:30:48.672Z,2.85
2023-05-04T09:33:16.081Z,2.40
2023-05-04T09:35:43.676Z,2.22
2023-05-04T09:38:11.008Z,2.10
2023-05-04T09:40:41.937Z,1.75
2023-05-04T09:43:09.320Z,2.20
2023-05-04T09:45:39.643Z,1.92
2023-05-04T09:48:15.818Z,2.10
2023-05-04T09:50:53.442Z,1.80
2023-05-04T09:53:24.929Z,1.83
2023-05-04T09:55:55.299Z,2.28
2023-05-04T09:58:23.157Z,2.50
2023-05-04T10:00:50.738Z,2.35
2023-05-04T10:03:18.632Z,1.88
2023-05-04T10:05:46.232Z,2.50
2023-05-04T10:08:13.831Z,2.40
2023-05-04T10:10:41.459Z,2.22
2023-05-04T10:13:08.810Z,2.22
2023-05-04T10:15:39.856Z,2.30
2023-05-04T10:18:31.595Z,2.20
2023-05-04T10:21:28.450Z,2.25
2023-05-04T10:23:58.490Z,2.03
2023-05-04T10:26:31.784Z,2.00
2023-05-04T10:29:06.528Z,2.00
2023-05-04T10:31:38.176Z,2.25
2023-05-04T10:34:05.542Z,2.53
2023-05-04T10:36:39.575Z,2.35
2023-05-04T10:39:22.830Z,2.30
2023-05-04T10:42:03.757Z,1.80
2023-05-04T10:44:51.268Z,1.98
2023-05-04T10:47:47.949Z,2.08
2023-05-04T10:50:15.251Z,2.30
2023-05-04T10:52:46.528Z,2.15
2023-05-04T10:55:14.231Z,1.83
2023-05-04T10:57:47.609Z,2.00
2023-05-04T11:00:15.248Z,1.83
2023-05-04T11:02:42.888Z,1.90
2023-05-04T11:05:10.270Z,2.22
2023-05-04T11:07:38.378Z,1.98
2023-05-04T11:10:08.366Z,2.47
2023-05-04T11:12:38.262Z,2.33
2023-05-04T11:15:05.985Z,2.13
2023-05-04T11:17:33.971Z,2.13
2023-05-04T11:20:01.306Z,2.20
2023-05-04T11:22:28.878Z,2.00
2023-05-04T11:25:02.687Z,2.42
2023-05-04T11:27:30.449Z,2.15
2023-05-04T11:30:01.598Z,1.80
2023-05-04T11:32:39.275Z,2.45
2023-05-04T11:35:14.285Z,2.28
2023-05-04T11:37:42.288Z,2.80
2023-05-04T11:40:13.116Z,2.60
2023-05-04T11:42:41.391Z,2.10
2023-05-04T11:45:14.196Z,2.42
2023-05-04T11:47:41.916Z,1.90
2023-05-04T11:50:09.984Z,1.90
2023-05-04T11:52:38.841Z,2.30
2023-05-04T11:55:09.395Z,2.03
2023-05-04T11:57:37.353Z,3.47
2023-05-04T12:00:05.579Z,2.20
2023-05-04T12:02:33.522Z,2.22
2023-05-04T12:05:01.410Z,1.98
2023-05-04T12:07:29.100Z,2.03
2023-05-04T12:09:56.332Z,2.13
2023-05-04T12:12:34.135Z,1.63
2023-05-04T12:15:01.411Z,2.00
2023-05-04T12:17:39.039Z,1.80
2023-05-04T12:20:06.655Z,1.80
2023-05-04T12:22:34.217Z,1.60
2023-05-04T12:25:01.477Z,1.60
2023-05-04T12:27:30.092Z,1.98
2023-05-04T12:29:57.312Z,1.73
2023-05-04T12:32:24.945Z,1.83
2023-05-04T12:34:52.168Z,1.90
2023-05-04T12:37:19.691Z,1.67
2023-05-04T12:39:47.026Z,1.55
2023-05-04T12:42:14.595Z,1.67
2023-05-04T12:44:41.838Z,1.50
2023-05-04T12:47:09.361Z,2.05
2023-05-04T12:49:36.590Z,2.03
2023-05-04T12:52:04.133Z,2.00
2023-05-04T12:54:31.399Z,1.85
2023-05-04T12:56:58.916Z,2.00
2023-05-04T12:59:26.099Z,1.70
2023-05-04T13:01:53.733Z,1.65
2023-05-04T13:04:21.018Z,1.70
2023-05-04T13:06:48.598Z,1.88
2023-05-04T13:09:15.854Z,1.83
2023-05-04T13:11:43.379Z,1.70
2023-05-04T13:14:10.817Z,1.63
2023-05-04T13:16:38.339Z,1.50
2023-05-04T13:19:05.584Z,2.00
2023-05-04T13:21:33.107Z,2.17
2023-05-04T13:24:00.330Z,1.88
2023-05-04T13:26:27.849Z,1.63
2023-05-04T13:28:55.085Z,1.98
2023-05-04T13:31:22.632Z,1.60
2023-05-04T13:33:49.866Z,1.60
2023-05-04T13:36:17.369Z,1.80
2023-05-04T13:38:44.647Z,1.70
2023-05-04T13:41:12.168Z,2.15
2023-05-04T13:43:39.379Z,1.55
2023-05-04T13:46:06.914Z,1.55
2023-05-04T13:48:34.202Z,1.48
2023-05-04T13:51:04.618Z,1.80
2023-05-04T13:53:31.832Z,1.52
2023-05-04T13:55:59.331Z,2.25
2023-05-04T13:58:26.552Z,1.58
2023-05-04T14:00:54.146Z,1.75
2023-05-04T14:03:21.697Z,1.30
2023-05-04T14:05:50.754Z,2.03
2023-05-04T14:08:17.998Z,1.80
2023-05-04T14:10:45.530Z,1.45
2023-05-04T14:13:12.982Z,1.58
2023-05-04T14:15:40.562Z,1.45
2023-05-04T14:18:07.844Z,1.85
2023-05-04T14:20:35.380Z,1.67
2023-05-04T14:23:02.622Z,1.63
2023-05-04T14:25:30.168Z,2.08
2023-05-04T14:27:57.437Z,1.90
2023-05-04T14:30:25.024Z,1.73
2023-05-04T14:32:55.467Z,1.70
2023-05-04T14:35:23.072Z,1.63
2023-05-04T14:37:50.278Z,1.30
2023-05-04T14:40:17.854Z,1.48
2023-05-04T14:42:45.120Z,1.55
2023-05-04T14:45:12.918Z,1.70
2023-05-04T14:47:40.229Z,1.70
2023-05-04T14:50:08.176Z,1.60
2023-05-04T14:52:35.698Z,1.70
2023-05-04T14:55:03.602Z,2.20
2023-05-04T14:57:30.898Z,1.50
2023-05-04T14:59:58.426Z,1.52
2023-05-04T15:02:25.734Z,1.70
2023-05-04T15:04:53.353Z,1.75
2023-05-04T15:07:20.716Z,1.90
2023-05-04T15:09:48.468Z,1.60
2023-05-04T15:12:16.143Z,1.48
2023-05-04T15:14:43.816Z,1.88
2023-05-04T15:17:11.271Z,1.70
2023-05-04T15:19:39.292Z,1.98
2023-05-04T15:22:07.980Z,1.70
2023-05-04T15:24:35.640Z,1.70
2023-05-04T15:27:02.921Z,1.80
2023-05-04T15:29:30.420Z,1.80
2023-05-04T15:31:57.744Z,1.67
2023-05-04T15:34:25.332Z,1.90
2023-05-04T15:36:52.620Z,1.70
2023-05-04T15:42:23.763Z,1.60
2023-05-04T15:44:51.311Z,1.98
2023-05-04T15:47:18.746Z,1.60
2023-05-04T15:49:46.425Z,1.73
2023-05-04T15:52:13.619Z,1.40
2023-05-04T15:54:41.134Z,1.42
2023-05-04T16:00:40.185Z,1.50
2023-05-04T16:03:07.967Z,1.80
2023-05-04T16:05:35.359Z,1.50
2023-05-04T16:08:03.005Z,1.60
2023-05-04T16:10:30.275Z,1.50
2023-05-04T16:12:57.778Z,1.75
2023-05-04T16:15:25.031Z,1.70
2023-05-04T16:17:52.660Z,1.80
2023-05-04T16:20:19.944Z,1.33
2023-05-04T16:22:47.630Z,1.60
2023-05-04T16:25:14.991Z,1.70
2023-05-04T16:27:42.547Z,1.40
2023-05-04T16:30:10.213Z,1.70
2023-05-04T16:32:38.127Z,1.40
2023-05-04T16:35:05.704Z,1.67
2023-05-04T16:37:34.897Z,1.52
2023-05-04T16:40:08.846Z,1.27
2023-05-04T16:42:36.548Z,1.50
2023-05-04T16:45:04.176Z,1.88
2023-05-04T16:47:31.820Z,1.52
2023-05-04T16:49:59.095Z,1.58
2023-05-04T16:52:26.686Z,1.60
2023-05-04T16:54:54.099Z,1.67
2023-05-04T16:57:22.059Z,1.60
2023-05-04T16:59:49.269Z,1.60
2023-05-04T17:02:16.811Z,1.63
2023-05-04T17:04:44.063Z,1.42
2023-05-04T17:07:11.571Z,1.75
2023-05-04T17:09:38.889Z,1.65
2023-05-04T17:12:06.724Z,1.85
2023-05-04T17:14:34.017Z,1.70
2023-05-04T17:17:02.157Z,1.50
2023-05-04T17:19:29.585Z,1.60
2023-05-04T17:21:57.145Z,1.55
2023-05-04T17:24:24.436Z,2.83
2023-05-04T17:26:52.026Z,1.75
2023-05-04T17:29:19.262Z,2.00
2023-05-04T17:31:46.844Z,1.70
2023-05-04T17:34:14.074Z,1.85
2023-05-04T17:36:41.614Z,1.90
2023-05-04T17:39:08.842Z,1.77
2023-05-04T17:41:36.389Z,1.80
2023-05-04T17:44:03.698Z,1.60
2023-05-04T17:46:31.316Z,1.58
2023-05-04T17:48:58.562Z,2.20
2023-05-04T17:51:26.080Z,1.70
2023-05-04T17:53:53.313Z,1.77
2023-05-04T17:56:20.892Z,2.00
2023-05-04T17:58:48.171Z,1.48
2023-05-04T18:01:15.821Z,1.80
2023-05-04T18:03:43.680Z,1.58
2023-05-04T18:06:11.369Z,2.03
2023-05-04T18:08:38.592Z,2.03
2023-05-04T18:11:06.172Z,1.90
2023-05-04T18:13:33.481Z,1.90
2023-05-04T18:16:01.105Z,1.73
2023-05-04T18:18:28.342Z,1.88
2023-05-04T18:20:59.031Z,1.70
2023-05-04T18:23:26.622Z,1.73
2023-05-04T18:25:54.185Z,1.73
2023-05-04T18:28:21.464Z,1.90
2023-05-04T18:30:49.080Z,1.88
2023-05-04T18:33:16.368Z,2.00
2023-05-04T18:35:44.051Z,1.85
2023-05-04T18:38:11.322Z,1.70
2023-05-04T18:40:44.346Z,1.60
2023-05-04T18:43:11.644Z,2.20
2023-05-04T18:45:45.402Z,2.00
2023-05-04T18:48:12.890Z,1.83
2023-05-04T18:50:41.016Z,1.60
2023-05-04T18:53:08.290Z,1.80
2023-05-04T18:55:35.989Z,2.05
2023-05-04T18:58:03.251Z,2.28
2023-05-04T19:00:30.985Z,1.85
2023-05-04T19:02:58.412Z,2.67
2023-05-04T19:05:26.442Z,2.47
2023-05-04T19:07:54.044Z,2.15
2023-05-04T19:10:21.723Z,2.38
2023-05-04T19:12:50.380Z,4.72
2023-05-04T19:15:19.111Z,3.38
2023-05-04T19:17:46.451Z,2.22
2023-05-04T19:20:14.389Z,2.83
2023-05-04T19:22:41.763Z,2.17
2023-05-04T19:25:11.175Z,2.30
2023-05-04T19:27:43.082Z,2.70
2023-05-04T19:30:10.943Z,2.13
2023-05-04T19:32:38.300Z,2.35
2023-05-04T19:35:06.428Z,2.58
2023-05-04T19:37:33.961Z,2.40
2023-05-04T19:40:07.851Z,2.30
2023-05-04T19:42:35.334Z,2.47
2023-05-04T19:45:04.078Z,2.45
2023-05-04T19:47:31.492Z,2.50
2023-05-04T19:50:00.496Z,2.38
2023-05-04T19:52:34.837Z,2.17
2023-05-04T19:55:02.545Z,2.30
2023-05-04T19:57:30.004Z,2.50
2023-05-04T19:59:57.745Z,2.58
2023-05-04T20:02:25.042Z,2.00
2023-05-04T20:04:52.813Z,2.60
2023-05-04T20:07:20.346Z,2.63
2023-05-04T20:09:47.938Z,2.17
2023-05-04T20:12:15.233Z,2.83
2023-05-04T20:14:42.936Z,3.10
2023-05-04T20:17:10.187Z,2.70
2023-05-04T20:19:37.905Z,2.60
2023-05-04T20:22:05.251Z,2.80
2023-05-04T20:24:32.963Z,2.50
2023-05-04T20:27:00.364Z,2.58
2023-05-04T20:29:27.930Z,2.65
2023-05-04T20:31:55.489Z,2.42
2023-05-04T20:34:23.041Z,2.80
2023-05-04T20:36:50.346Z,2.88
2023-05-04T20:39:17.912Z,3.22
2023-05-04T20:41:45.345Z,2.60
2023-05-04T20:44:12.960Z,2.58
2023-05-04T20:46:40.239Z,2.72
2023-05-04T20:49:08.424Z,2.60
2023-05-04T20:51:35.904Z,2.60
2023-05-04T20:54:04.271Z,2.75
2023-05-04T20:56:31.509Z,2.78
2023-05-04T20:58:59.338Z,2.80
2023-05-04T21:01:26.782Z,2.75
2023-05-04T21:03:55.557Z,2.80
2023-05-04T21:06:22.854Z,2.53
2023-05-04T21:08:50.429Z,2.95
2023-05-04T21:11:17.882Z,2.90
2023-05-04T21:13:45.573Z,2.90
2023-05-04T21:16:12.880Z,3.03
2023-05-04T21:18:40.458Z,3.13
2023-05-04T21:21:07.886Z,3.05
2023-05-04T21:23:38.589Z,3.53
2023-05-04T21:26:05.963Z,2.97
2023-05-04T21:28:33.540Z,2.90
2023-05-04T21:31:00.934Z,2.85
2023-05-04T21:33:28.638Z,3.03
2023-05-04T21:35:55.934Z,3.10
2023-05-04T21:38:23.561Z,3.38
2023-05-04T21:40:50.825Z,3.72
2023-05-04T21:43:18.346Z,4.30
2023-05-04T21:45:45.605Z,3.70
2023-05-04T21:48:13.112Z,3.30
2023-05-04T21:50:40.428Z,3.20
2023-05-04T21:53:07.995Z,3.80
2023-05-04T21:55:35.209Z,2.97
2023-05-04T21:58:02.809Z,3.67
2023-05-04T22:00:30.161Z,3.40
2023-05-04T22:02:57.843Z,4.68
2023-05-04T22:05:25.166Z,3.90
2023-05-04T22:07:52.710Z,3.90
2023-05-04T22:10:19.985Z,4.35
2023-05-04T22:12:47.520Z,4.78
2023-05-04T22:21:59.649Z,4.82
2023-05-04T22:24:27.280Z,4.80
2023-05-04T22:26:54.479Z,5.03
2023-05-04T22:29:21.982Z,5.35
2023-05-04T22:31:49.300Z,5.63
2023-05-04T22:34:16.857Z,6.88
2023-05-04T22:36:44.053Z,5.70
2023-05-04T22:39:11.532Z,6.10
2023-05-04T22:41:38.742Z,6.25
2023-05-04T22:44:06.290Z,6.10
2023-05-04T22:46:38.421Z,5.70
2023-05-04T22:49:08.197Z,6.25
2023-05-04T22:51:59.048Z,6.75
2023-05-04T22:54:35.576Z,5.93
2023-05-04T22:57:02.773Z,6.63
2023-05-04T22:59:38.286Z,6.55
2023-05-04T23:02:05.562Z,6.07
2023-05-04T23:04:33.155Z,6.25
2023-05-04T23:07:00.359Z,6.50
2023-05-04T23:09:27.968Z,6.47
2023-05-04T23:11:55.346Z,6.63
2023-05-04T23:14:22.851Z,6.25
2023-05-04T23:16:50.047Z,6.10
2023-05-04T23:19:17.526Z,7.38
2023-05-04T23:21:44.701Z,6.70
2023-05-04T23:24:12.144Z,8.00
2023-05-04T23:26:42.091Z,7.55
2023-05-04T23:29:09.595Z,7.43
2023-05-04T23:31:36.818Z,6.40
2023-05-04T23:34:04.381Z,7.03
2023-05-04T23:36:31.807Z,7.32
2023-05-04T23:38:59.347Z,7.43
2023-05-04T23:41:26.633Z,6.88
2023-05-04T23:43:54.128Z,7.60
2023-05-04T23:46:21.330Z,7.68
2023-05-04T23:48:48.808Z,8.02
2023-05-04T23:51:16.113Z,7.45
2023-05-04T23:53:43.579Z,7.25
2023-05-04T23:56:10.785Z,7.97
2023-05-04T23:58:38.236Z,7.85
